Weather at Cornwall Regional Airport

Public forecast

Using degrees Celsius for public forecast. Weather courtesy of forecast.io.

Closest aviation weather report (METAR) to Cornwall Regional Airport

Closest report is Massena International Richards Field, 15.2 nm (28.2 km) SW. Retrieved 2021/03/07 12:53 UTC (2 hours ago):

KMSS 071253Z AUTO 24006KT 10SM CLR M13/M18 A3036 RMK AO2 SLP291 T11281178

Closest aviation forecast (TAF) to Cornwall Regional Airport

Closest forecast is Massena International Richards Field, 15.2 nm (28.2 km) SW. Retrieved 2021/03/07 12:30 UTC (2 hours ago):

TAF KMSS 071128Z 0712/0812 23006KT P6SM OVC050 FM071500 28007KT P6SM FEW100 FM072300 26005KT P6SM FEW250 FM080800 00000KT P6SM FEW200